Time;durP1;ratioP1;P1;durP2;ratioP2;P2;SDS_P1;SDS_P2;PMS_P1;PMS_P2;Temp;Humidity;BMP_temperature;BMP_pressure;BME280_temperature;BME280_humidity;BME280_pressure;Samples;Min_cycle;Max_cycle;Signal;HPM_P1;HPM_P2
2023/03/22 00:01:14;;;;;;;40.90;26.80;;;;;;;0.61;74.70;100555.54;106872;1257;1057940;-72
2023/03/22 00:06:08;;;;;;;40.20;29.30;;;;;;;0.62;74.74;100555.41;106852;1260;1075381;-71
2023/03/22 00:11:01;;;;;;;42.00;29.70;;;;;;;0.62;74.78;100552.02;106842;1258;1018039;-72
2023/03/22 00:15:56;;;;;;;48.60;32.40;;;;;;;0.65;74.91;100547.04;106821;1259;1016576;-72
2023/03/22 00:20:51;;;;;;;57.00;35.10;;;;;;;0.68;75.08;100541.63;106892;1259;1050715;-72
2023/03/22 00:25:45;;;;;;;65.10;39.00;;;;;;;0.71;75.04;100535.43;106881;1262;1016432;-71
2023/03/22 00:30:39;;;;;;;58.60;37.10;;;;;;;0.71;75.47;100531.20;106887;1257;1016202;-71
2023/03/22 00:35:32;;;;;;;65.20;41.60;;;;;;;0.71;75.36;100534.58;106884;1258;1016406;-71
2023/03/22 00:40:25;;;;;;;64.00;40.60;;;;;;;0.70;75.35;100530.27;106815;1259;1018309;-71
2023/03/22 00:45:18;;;;;;;63.50;37.30;;;;;;;0.69;75.37;100526.97;106840;1262;1016332;-71
2023/03/22 00:50:11;;;;;;;59.50;38.30;;;;;;;0.67;75.40;100522.78;106875;1257;1016159;-71
2023/03/22 00:55:04;;;;;;;69.50;41.20;;;;;;;0.63;75.33;100525.13;106778;1257;1016398;-71
2023/03/22 00:59:57;;;;;;;69.70;42.00;;;;;;;0.62;75.57;100520.95;106948;1257;1018183;-72
2023/03/22 01:04:50;;;;;;;59.30;37.60;;;;;;;0.62;75.28;100517.55;106905;1258;1016227;-71
2023/03/22 01:09:45;;;;;;;67.70;41.80;;;;;;;0.61;75.69;100512.88;106893;1257;1016493;-71
2023/03/22 01:14:40;;;;;;;61.40;39.00;;;;;;;0.60;75.78;100513.48;106830;1257;1016285;-71
2023/03/22 01:19:34;;;;;;;60.20;37.80;;;;;;;0.53;75.54;100517.95;106918;1257;1016074;-72
2023/03/22 01:24:27;;;;;;;65.80;42.20;;;;;;;0.48;75.82;100515.27;106756;1258;1016438;-71
2023/03/22 01:29:20;;;;;;;66.90;41.90;;;;;;;0.48;75.90;100509.25;106801;1257;1016510;-71
2023/03/22 01:34:13;;;;;;;74.10;43.10;;;;;;;0.44;75.91;100510.44;106904;1257;1018103;-71
2023/03/22 01:39:07;;;;;;;69.70;41.80;;;;;;;0.43;76.05;100505.57;106834;1257;1017543;-72
2023/03/22 01:44:20;;;;;;;67.70;41.40;;;;;;;0.40;76.21;100500.52;106881;1258;1016436;-71
2023/03/22 01:49:25;;;;;;;59.10;38.60;;;;;;;0.38;76.02;100497.16;106913;1261;1065578;-72
2023/03/22 01:54:32;;;;;;;64.70;39.60;;;;;;;0.35;76.01;100492.41;106891;1257;1070572;-72
2023/03/22 01:59:27;;;;;;;64.90;41.80;;;;;;;0.35;75.95;100482.35;106855;1257;1050873;-71
2023/03/22 02:04:41;;;;;;;68.60;42.80;;;;;;;0.31;76.00;100480.27;106820;1257;1058079;-71
2023/03/22 02:09:38;;;;;;;66.30;43.40;;;;;;;0.26;76.06;100474.86;106875;1257;1016051;-71
2023/03/22 02:14:56;;;;;;;65.30;40.20;;;;;;;0.23;76.25;100474.33;106859;1257;1065611;-72
2023/03/22 02:20:14;;;;;;;64.20;41.60;;;;;;;0.23;76.25;100469.58;106924;1257;1070653;-71
2023/03/22 02:25:10;;;;;;;73.60;43.20;;;;;;;0.22;76.22;100469.52;106762;1257;1050315;-71
2023/03/22 02:30:16;;;;;;;64.30;41.50;;;;;;;0.21;76.36;100471.16;106951;1258;1058299;-71
2023/03/22 02:35:29;;;;;;;67.50;38.20;;;;;;;0.15;76.16;100474.42;106872;1257;1073344;-71
2023/03/22 02:40:44;;;;;;;60.00;37.10;;;;;;;0.14;76.47;100470.94;106798;1257;1068246;-72
2023/03/22 02:46:05;;;;;;;62.80;39.40;;;;;;;0.15;76.42;100467.80;106866;1257;1069260;-71
2023/03/22 02:51:07;;;;;;;60.20;36.50;;;;;;;0.17;76.76;100461.08;106915;1259;1050203;-72
2023/03/22 02:56:09;;;;;;;62.20;36.00;;;;;;;0.19;76.65;100454.52;106908;1262;1058091;-71
2023/03/22 03:01:07;;;;;;;67.60;37.40;;;;;;;0.19;76.76;100448.03;106851;1257;1072520;-71
2023/03/22 03:06:08;;;;;;;58.50;36.10;;;;;;;0.18;76.64;100445.81;106928;1258;1065907;-72
2023/03/22 03:11:01;;;;;;;57.30;37.60;;;;;;;0.16;76.86;100442.96;106928;1262;1071237;-71
2023/03/22 03:15:57;;;;;;;55.00;33.30;;;;;;;0.12;76.62;100444.63;106759;1257;1015712;-71
2023/03/22 03:21:18;;;;;;;55.90;34.00;;;;;;;0.13;77.07;100442.95;106859;1257;1058368;-71
2023/03/22 03:26:20;;;;;;;47.90;31.10;;;;;;;0.15;77.19;100443.74;106822;1259;1075606;-72
2023/03/22 03:31:57;;;;;;;59.10;34.10;;;;;;;0.14;77.16;100448.49;106870;1257;1067737;-71
2023/03/22 03:37:00;;;;;;;55.20;33.40;;;;;;;0.16;77.22;100447.87;106362;1267;1070650;-72
2023/03/22 03:41:55;;;;;;;49.40;31.70;;;;;;;0.16;77.27;100435.28;106299;1267;1050835;-71
2023/03/22 03:46:50;;;;;;;56.30;34.60;;;;;;;0.14;77.16;100437.40;106383;1266;1058478;-71
2023/03/22 03:51:50;;;;;;;53.50;31.80;;;;;;;0.13;77.22;100436.12;106347;1266;1072542;-71
2023/03/22 03:56:43;;;;;;;52.70;31.50;;;;;;;0.10;77.37;100436.16;106391;1267;1065201;-71
2023/03/22 04:01:36;;;;;;;50.00;30.60;;;;;;;0.11;77.47;100435.69;106342;1267;1016374;-71
2023/03/22 04:06:39;;;;;;;47.50;29.60;;;;;;;0.09;77.24;100437.45;106329;1267;1051037;-71
2023/03/22 04:11:35;;;;;;;40.70;24.00;;;;;;;0.08;77.44;100434.31;106720;1257;1058405;-72
2023/03/22 04:16:29;;;;;;;39.60;22.90;;;;;;;0.08;77.47;100439.59;107007;1257;1016259;-71
2023/03/22 04:21:22;;;;;;;42.90;25.40;;;;;;;0.05;77.63;100438.78;106875;1257;1016504;-72
2023/03/22 04:26:21;;;;;;;41.40;25.80;;;;;;;0.11;78.16;100437.73;106906;1257;1069866;-71
2023/03/22 04:31:37;;;;;;;42.60;24.20;;;;;;;0.17;78.15;100431.62;106902;1259;1050942;-72
2023/03/22 04:36:53;;;;;;;36.90;23.90;;;;;;;0.23;78.19;100432.10;106866;1259;1062047;-72
2023/03/22 04:41:53;;;;;;;29.90;18.10;;;;;;;0.27;78.28;100437.58;106912;1257;1072785;-71
2023/03/22 04:46:45;;;;;;;37.40;22.20;;;;;;;0.32;78.52;100433.58;106893;1257;1016394;-72
2023/03/22 04:51:39;;;;;;;30.50;18.50;;;;;;;0.34;78.45;100436.78;106755;1257;1016353;-72
2023/03/22 04:56:40;;;;;;;32.10;20.90;;;;;;;0.38;78.39;100443.47;106940;1257;1049756;-71
2023/03/22 05:01:34;;;;;;;26.90;18.30;;;;;;;0.46;78.50;100444.04;106880;1257;1015789;-71
2023/03/22 05:06:34;;;;;;;27.30;16.60;;;;;;;0.53;78.71;100447.82;106943;1257;1072396;-71
2023/03/22 05:11:39;;;;;;;29.30;18.40;;;;;;;0.61;78.65;100444.86;106884;1257;1065439;-71
2023/03/22 05:17:02;;;;;;;27.50;17.70;;;;;;;0.73;78.56;100443.75;106803;1257;1070484;-71
2023/03/22 05:22:00;;;;;;;27.80;17.80;;;;;;;0.83;78.50;100448.38;106956;1257;1051345;-72
2023/03/22 05:27:14;;;;;;;24.20;16.50;;;;;;;0.93;78.52;100452.29;106890;1257;1058728;-72
2023/03/22 05:32:08;;;;;;;25.70;17.50;;;;;;;1.02;78.64;100455.15;106882;1257;1018027;-73
2023/03/22 05:37:04;;;;;;;28.70;17.70;;;;;;;1.16;78.58;100460.63;106780;1258;1065049;-72
2023/03/22 05:42:09;;;;;;;24.60;16.60;;;;;;;1.31;78.49;100465.31;106889;1257;1070415;-72
2023/03/22 05:47:06;;;;;;;25.60;17.60;;;;;;;1.49;78.24;100462.43;106855;1258;1016407;-73
2023/03/22 05:52:04;;;;;;;36.00;21.10;;;;;;;1.67;78.46;100453.41;106805;1257;1058443;-73
2023/03/22 05:57:13;;;;;;;26.40;19.10;;;;;;;1.80;77.93;100452.30;106830;1258;1072658;-73
2023/03/22 06:02:06;;;;;;;25.10;19.30;;;;;;;1.98;78.10;100449.93;106874;1257;1018453;-73
2023/03/22 06:06:59;;;;;;;29.90;20.70;;;;;;;2.23;77.83;100453.14;106811;1257;1016149;-73
2023/03/22 06:12:04;;;;;;;28.20;18.10;;;;;;;2.51;77.93;100459.55;106804;1257;1051118;-73
2023/03/22 06:16:57;;;;;;;26.70;19.40;;;;;;;2.82;77.86;100464.84;106788;1257;1016895;-73
2023/03/22 06:21:51;;;;;;;25.50;18.50;;;;;;;3.14;77.67;100462.81;106811;1258;1016053;-73
2023/03/22 06:26:46;;;;;;;25.20;17.60;;;;;;;3.40;77.48;100453.80;107040;1257;1064832;-74
2023/03/22 06:31:39;;;;;;;26.70;20.00;;;;;;;3.53;77.53;100454.16;106833;1259;1016144;-73
2023/03/22 06:36:33;;;;;;;27.90;20.00;;;;;;;3.70;77.74;100457.77;106877;1259;1019917;-73
2023/03/22 06:41:30;;;;;;;25.50;19.30;;;;;;;3.92;77.79;100453.83;106902;1257;1057891;-73
2023/03/22 06:46:22;;;;;;;21.60;17.60;;;;;;;3.99;77.99;100445.02;106787;1258;1016172;-73
2023/03/22 06:51:23;;;;;;;26.80;19.40;;;;;;;4.12;78.40;100442.42;106798;1257;1065536;-72
2023/03/22 06:56:16;;;;;;;26.50;20.50;;;;;;;4.34;78.72;100443.27;106878;1259;1018081;-73
2023/03/22 07:01:13;;;;;;;30.60;20.40;;;;;;;4.83;78.28;100442.14;106883;1257;1051428;-72
2023/03/22 07:06:08;;;;;;;29.00;20.80;;;;;;;5.42;77.58;100439.38;106756;1259;1016426;-72
2023/03/22 07:11:04;;;;;;;;;;;;;;;5.67;77.05;100435.56;106866;1258;1072501;-72
2023/03/22 07:16:00;;;;;;;27.10;20.20;;;;;;;5.64;77.21;100432.86;106851;1258;1065189;-73
2023/03/22 07:21:04;;;;;;;27.40;20.80;;;;;;;5.78;77.32;100421.77;106877;1259;1069793;-73
2023/03/22 07:25:59;;;;;;;26.40;21.70;;;;;;;6.02;77.44;100420.82;106832;1257;1016550;-72
2023/03/22 07:31:10;;;;;;;24.30;20.60;;;;;;;6.57;76.89;100416.41;106829;1257;1059346;-73
2023/03/22 07:36:11;;;;;;;22.40;20.00;;;;;;;8.67;73.28;100400.31;106835;1259;1072800;-73
2023/03/22 07:41:05;;;;;;;18.50;16.60;;;;;;;11.14;70.62;100391.70;106875;1258;1016106;-74
2023/03/22 07:46:17;;;;;;;18.50;16.60;;;;;;;12.98;66.91;100386.19;106816;1257;1070448;-73
2023/03/22 07:51:43;;;;;;;17.90;16.00;;;;;;;13.96;64.64;100380.29;106812;1258;1051747;-73
2023/03/22 07:56:36;;;;;;;17.10;15.40;;;;;;;14.92;63.67;100374.14;106837;1257;1016500;-73
2023/03/22 08:01:30;;;;;;;16.60;14.90;;;;;;;16.51;60.52;100369.33;106816;1259;1016397;-73
2023/03/22 08:06:45;;;;;;;16.40;14.80;;;;;;;16.36;59.63;100364.98;106808;1257;1065911;-73
2023/03/22 08:11:38;;;;;;;17.10;15.30;;;;;;;15.63;59.29;100361.57;106727;1259;1071576;-74
2023/03/22 08:16:31;;;;;;;15.70;14.20;;;;;;;15.54;59.78;100359.89;106958;1258;1016417;-73
2023/03/22 08:21:25;;;;;;;14.20;12.80;;;;;;;16.93;58.74;100355.77;106797;1259;1016310;-73
2023/03/22 08:26:21;;;;;;;14.40;13.10;;;;;;;17.23;56.96;100347.67;106886;1257;1072478;-73
2023/03/22 08:31:16;;;;;;;14.70;13.20;;;;;;;16.51;56.86;100349.59;106894;1257;1016514;-73
2023/03/22 08:36:15;;;;;;;14.60;13.00;;;;;;;17.46;54.05;100336.08;106771;1257;1071373;-73
2023/03/22 08:41:15;;;;;;;15.90;14.20;;;;;;;16.73;55.25;100340.54;106795;1261;1052033;-73
2023/03/22 08:46:09;;;;;;;15.30;13.30;;;;;;;16.19;56.80;100349.46;106813;1258;1016318;-73
2023/03/22 08:51:03;;;;;;;15.10;13.60;;;;;;;15.89;56.92;100348.74;106753;1257;1016185;-73
2023/03/22 08:56:21;;;;;;;15.50;13.90;;;;;;;15.78;56.42;100343.80;106844;1257;1065155;-72
2023/03/22 09:01:25;;;;;;;13.50;12.20;;;;;;;15.27;56.48;100342.15;106764;1257;1073463;-73
2023/03/22 09:06:25;;;;;;;15.10;13.60;;;;;;;14.50;57.08;100336.70;106733;1258;1051227;-73
2023/03/22 09:11:19;;;;;;;14.30;12.80;;;;;;;13.92;58.24;100333.27;106858;1259;1016007;-73
2023/03/22 09:16:13;;;;;;;16.40;14.70;;;;;;;13.43;58.78;100324.48;106812;1257;1016136;-74
2023/03/22 09:21:08;;;;;;;14.00;12.50;;;;;;;12.84;59.30;100321.30;106844;1259;1016015;-73
2023/03/22 09:26:08;;;;;;;14.10;12.60;;;;;;;12.37;59.92;100324.49;106919;1257;1071856;-73
2023/03/22 09:31:08;;;;;;;14.80;12.50;;;;;;;12.18;60.99;100326.69;106802;1260;1050588;-73
2023/03/22 09:36:02;;;;;;;13.20;11.90;;;;;;;12.00;61.08;100323.81;106827;1259;1059112;-73
2023/03/22 09:41:01;;;;;;;15.90;13.20;;;;;;;11.81;61.70;100322.64;106797;1258;1072895;-72
2023/03/22 09:45:56;;;;;;;15.70;12.50;;;;;;;11.58;61.86;100315.22;106823;1258;1066031;-73
2023/03/22 09:50:53;;;;;;;15.90;13.70;;;;;;;11.51;62.19;100307.88;106834;1262;1018084;-73
2023/03/22 09:56:18;;;;;;;15.20;12.30;;;;;;;11.55;62.75;100309.46;106859;1258;1050812;-73
2023/03/22 10:01:21;;;;;;;14.70;11.60;;;;;;;11.62;62.47;100303.96;106790;1259;1061360;-73
2023/03/22 10:06:23;;;;;;;14.90;11.40;;;;;;;11.63;62.50;100303.62;106776;1259;1073202;-73
2023/03/22 10:11:59;;;;;;;17.10;12.30;;;;;;;11.68;62.62;100293.23;106737;1259;1065377;-73
2023/03/22 10:16:56;;;;;;;13.00;11.60;;;;;;;11.81;62.71;100279.25;106705;1259;1070588;-73
2023/03/22 10:21:51;;;;;;;14.10;11.70;;;;;;;11.87;62.69;100265.72;106872;1262;1051068;-72
2023/03/22 10:26:48;;;;;;;12.40;11.10;;;;;;;11.88;62.47;100261.04;106819;1258;1058859;-73
2023/03/22 10:31:44;;;;;;;13.50;11.30;;;;;;;11.84;62.54;100257.20;106913;1259;1072740;-73
2023/03/22 10:36:41;;;;;;;11.80;10.60;;;;;;;11.99;62.57;100267.19;106809;1263;1065965;-72
2023/03/22 10:41:34;;;;;;;14.10;10.90;;;;;;;12.25;62.33;100258.27;106768;1259;1070410;-72
2023/03/22 10:46:34;;;;;;;15.90;11.40;;;;;;;12.44;62.27;100257.08;106765;1259;1016528;-72
2023/03/22 10:51:36;;;;;;;14.20;11.60;;;;;;;12.50;61.96;100257.43;106846;1259;1061022;-72
2023/03/22 10:56:29;;;;;;;12.90;10.50;;;;;;;12.42;61.63;100254.29;107058;1259;1073473;-72
2023/03/22 11:01:32;;;;;;;13.30;11.50;;;;;;;12.40;61.63;100251.85;106803;1257;1016265;-72
2023/03/22 11:06:31;;;;;;;13.00;11.60;;;;;;;12.29;61.70;100255.98;106811;1257;1070360;-72
2023/03/22 11:11:30;;;;;;;13.80;11.50;;;;;;;12.05;61.58;100257.67;107018;1259;1051004;-72
2023/03/22 11:16:23;;;;;;;13.00;10.80;;;;;;;11.81;62.00;100259.45;106852;1257;1058577;-72
2023/03/22 11:21:18;;;;;;;13.10;10.80;;;;;;;11.67;62.35;100257.30;106834;1257;1018970;-71
2023/03/22 11:26:14;;;;;;;15.10;11.70;;;;;;;11.70;62.55;100250.55;106801;1260;1016489;-71
2023/03/22 11:31:11;;;;;;;9.90;8.90;;;;;;;11.83;62.53;100244.34;106827;1259;1070407;-72
2023/03/22 11:36:15;;;;;;;10.80;9.70;;;;;;;11.99;62.67;100239.05;106793;1258;1051267;-72
2023/03/22 11:41:18;;;;;;;12.00;10.70;;;;;;;12.10;62.45;100231.45;106839;1258;1057984;-72
2023/03/22 11:46:12;;;;;;;11.50;9.80;;;;;;;12.11;62.35;100229.89;106837;1259;1073048;-72
2023/03/22 11:51:14;;;;;;;15.60;10.20;;;;;;;12.10;62.53;100225.37;106857;1257;1016445;-71
2023/03/22 11:56:13;;;;;;;11.30;9.80;;;;;;;12.19;62.56;100221.39;106835;1262;1073003;-72
2023/03/22 12:01:12;;;;;;;13.30;10.80;;;;;;;12.30;62.49;100208.90;106816;1259;1053831;-72
2023/03/22 12:06:19;;;;;;;12.40;10.40;;;;;;;12.62;62.07;100201.13;106789;1259;1058136;-72
2023/03/22 12:11:36;;;;;;;11.20;9.30;;;;;;;12.97;61.81;100195.38;106857;1259;1072765;-72
2023/03/22 12:16:36;;;;;;;9.90;8.90;;;;;;;13.26;61.51;100190.10;106830;1259;1065084;-72
2023/03/22 12:21:29;;;;;;;8.80;7.90;;;;;;;13.46;61.00;100185.38;106797;1261;1070751;-72
2023/03/22 12:26:26;;;;;;;9.70;8.70;;;;;;;13.47;60.63;100183.11;106777;1258;1016555;-73
2023/03/22 12:31:25;;;;;;;10.10;8.10;;;;;;;13.43;60.54;100176.16;106894;1259;1059072;-72
2023/03/22 12:36:29;;;;;;;10.90;9.30;;;;;;;13.40;60.66;100167.30;106836;1262;1073883;-72
2023/03/22 12:41:32;;;;;;;9.30;7.80;;;;;;;13.36;60.79;100170.45;106804;1263;1065738;-72
2023/03/22 12:46:53;;;;;;;12.90;8.10;;;;;;;13.24;60.75;100158.95;106747;1261;1073134;-72
2023/03/22 12:51:49;;;;;;;9.80;8.80;;;;;;;13.22;60.91;100155.65;106847;1261;1051278;-72
2023/03/22 12:56:45;;;;;;;9.40;8.40;;;;;;;13.24;60.96;100157.39;106799;1259;1061327;-72
2023/03/22 13:01:50;;;;;;;11.70;8.70;;;;;;;13.23;60.85;100161.56;106785;1261;1072691;-72
2023/03/22 13:06:43;;;;;;;11.70;8.10;;;;;;;13.19;61.30;100151.84;106862;1259;1068001;-72
2023/03/22 13:11:36;;;;;;;16.00;9.00;;;;;;;13.29;61.32;100147.64;106816;1260;1016340;-72
2023/03/22 13:16:50;;;;;;;11.30;8.30;;;;;;;13.41;61.20;100135.61;106782;1259;1018528;-72
2023/03/22 13:21:44;;;;;;;8.30;7.40;;;;;;;13.47;60.76;100131.42;106772;1261;1058082;-72
2023/03/22 13:26:48;;;;;;;8.80;6.90;;;;;;;13.40;60.38;100131.43;106806;1259;1016505;-72
2023/03/22 13:31:53;;;;;;;7.80;6.60;;;;;;;13.15;60.37;100137.92;106877;1260;1065084;-72
2023/03/22 13:36:53;;;;;;;9.30;6.60;;;;;;;12.96;60.81;100126.48;106784;1261;1071860;-72
2023/03/22 13:41:51;;;;;;;7.00;6.20;;;;;;;12.99;61.06;100119.70;106762;1263;1051308;-72
2023/03/22 13:46:46;;;;;;;8.60;6.30;;;;;;;13.08;60.95;100121.23;106810;1263;1058809;-73
2023/03/22 13:51:40;;;;;;;7.50;6.60;;;;;;;13.16;61.17;100115.48;106750;1260;1073993;-72
2023/03/22 13:56:42;;;;;;;8.40;6.70;;;;;;;13.22;61.02;100109.71;106844;1259;1018111;-72
2023/03/22 14:01:46;;;;;;;7.90;5.80;;;;;;;13.23;60.91;100104.66;106850;1262;1070984;-72
2023/03/22 14:07:13;;;;;;;8.30;6.10;;;;;;;13.13;60.81;100098.23;106823;1262;1051373;-72
2023/03/22 14:12:28;;;;;;;7.10;5.50;;;;;;;13.01;60.98;100092.38;106850;1262;1058776;-72
2023/03/22 14:17:31;;;;;;;9.50;6.80;;;;;;;12.95;61.09;100092.73;106958;1258;1075307;-73
2023/03/22 14:22:37;;;;;;;8.20;6.90;;;;;;;12.91;61.24;100085.27;106766;1258;1065094;-72
2023/03/22 14:27:28;;;;;;;12.40;8.60;;;;;;;12.89;61.34;100093.27;106897;1257;1071165;-72
2023/03/22 14:32:28;;;;;;;10.70;8.20;;;;;;;12.85;61.28;100093.27;106930;1257;1018352;-72
2023/03/22 14:37:20;;;;;;;11.50;8.60;;;;;;;12.81;61.38;100092.23;106958;1257;1076085;-72
2023/03/22 14:42:31;;;;;;;10.20;8.00;;;;;;;12.79;61.65;100091.39;106904;1257;1016508;-72
2023/03/22 14:47:42;;;;;;;10.20;7.70;;;;;;;12.76;61.77;100084.08;106848;1257;1070626;-72
2023/03/22 14:52:37;;;;;;;10.00;8.10;;;;;;;12.73;61.93;100080.97;106856;1262;1051245;-72
2023/03/22 14:57:32;;;;;;;11.10;8.20;;;;;;;12.69;62.20;100072.80;106880;1257;1016275;-72
2023/03/22 15:02:38;;;;;;;10.30;7.90;;;;;;;12.63;62.13;100070.20;106794;1261;1073268;-72
2023/03/22 15:07:30;;;;;;;8.70;7.10;;;;;;;12.58;62.28;100066.56;106792;1260;1065725;-72
2023/03/22 15:12:22;;;;;;;10.30;8.50;;;;;;;12.53;62.49;100065.69;106845;1263;1018192;-73
2023/03/22 15:17:15;;;;;;;9.30;7.60;;;;;;;12.50;62.73;100065.71;106908;1259;1057815;-72
2023/03/22 15:22:15;;;;;;;10.50;8.00;;;;;;;12.51;62.84;100060.48;106854;1261;1016396;-72
2023/03/22 15:27:13;;;;;;;9.90;7.90;;;;;;;12.52;62.81;100054.23;106824;1260;1064836;-72
2023/03/22 15:32:11;;;;;;;13.90;8.00;;;;;;;12.53;62.76;100053.36;106849;1260;1069883;-72
2023/03/22 15:37:03;;;;;;;9.70;7.90;;;;;;;12.48;62.81;100051.63;106742;1260;1050775;-72
2023/03/22 15:42:11;;;;;;;9.00;7.90;;;;;;;12.41;63.05;100050.59;106877;1260;1016460;-72
2023/03/22 15:47:06;;;;;;;10.40;8.10;;;;;;;12.34;63.43;100052.52;106832;1259;1064876;-72
2023/03/22 15:52:23;;;;;;;8.60;6.90;;;;;;;12.26;63.87;100047.14;106851;1260;1071298;-72
2023/03/22 15:57:25;;;;;;;10.90;8.30;;;;;;;12.17;64.33;100038.45;106834;1260;1052245;-72
2023/03/22 16:02:26;;;;;;;10.40;7.80;;;;;;;12.08;64.64;100026.64;106886;1257;1058202;-72
2023/03/22 16:07:18;;;;;;;8.90;7.60;;;;;;;11.97;65.05;100020.04;106923;1258;1073319;-72
2023/03/22 16:12:16;;;;;;;13.80;7.40;;;;;;;11.85;65.25;100015.48;106941;1262;1016132;-72
2023/03/22 16:17:14;;;;;;;12.00;7.10;;;;;;;11.73;65.48;100021.38;106836;1258;1050526;-72
2023/03/22 16:22:08;;;;;;;16.90;7.70;;;;;;;11.60;65.83;100020.84;106948;1257;1059699;-72
2023/03/22 16:27:00;;;;;;;8.40;7.00;;;;;;;11.47;66.21;100014.91;106793;1260;1017322;-72
2023/03/22 16:31:51;;;;;;;10.70;7.10;;;;;;;11.33;66.61;100016.60;106866;1262;1016489;-72
2023/03/22 16:36:43;;;;;;;11.60;8.70;;;;;;;11.18;66.73;100012.92;106827;1263;1053738;-72
2023/03/22 16:41:40;;;;;;;11.50;8.10;;;;;;;11.02;67.01;100015.48;106926;1258;1016854;-72
2023/03/22 16:46:32;;;;;;;11.20;8.20;;;;;;;10.85;67.27;100012.63;106896;1257;1065040;-72
2023/03/22 16:51:28;;;;;;;20.60;7.80;;;;;;;10.71;67.68;100012.39;106947;1257;1016387;-72
2023/03/22 16:56:23;;;;;;;11.90;8.10;;;;;;;10.58;67.90;100021.33;106853;1257;1051154;-72
2023/03/22 17:01:18;;;;;;;14.50;8.10;;;;;;;10.44;68.08;100022.27;106925;1261;1057961;-73
2023/03/22 17:06:12;;;;;;;12.80;8.30;;;;;;;10.31;68.57;100024.59;106878;1257;1072622;-72
2023/03/22 17:11:05;;;;;;;11.40;7.80;;;;;;;10.17;68.60;100025.88;106890;1257;1016216;-72
2023/03/22 17:15:57;;;;;;;14.50;8.60;;;;;;;10.03;68.88;100024.36;106945;1258;1016749;-72
2023/03/22 17:20:48;;;;;;;11.70;8.70;;;;;;;9.86;69.03;100022.67;107001;1257;1058778;-72
2023/03/22 17:25:46;;;;;;;16.10;9.30;;;;;;;9.72;68.98;100028.43;106937;1257;1016422;-72
2023/03/22 17:30:38;;;;;;;;;;;;;;;9.61;69.28;100030.75;106867;1258;1073755;-72
2023/03/22 17:35:30;;;;;;;17.90;8.40;;;;;;;9.50;69.36;100033.92;106938;1257;1016441;-72
2023/03/22 17:40:23;;;;;;;17.40;8.90;;;;;;;9.40;69.44;100036.07;106925;1257;1073516;-72
2023/03/22 17:45:24;;;;;;;13.90;9.20;;;;;;;9.31;69.42;100037.36;106946;1257;1016222;-72
2023/03/22 17:50:16;;;;;;;11.50;7.40;;;;;;;9.20;69.67;100045.19;106957;1257;1070416;-72
2023/03/22 17:55:10;;;;;;;15.10;8.80;;;;;;;9.09;69.57;100046.62;106873;1257;1016630;-72
2023/03/22 18:00:02;;;;;;;18.10;9.40;;;;;;;8.99;69.78;100042.33;106967;1257;1073004;-72
2023/03/22 18:05:05;;;;;;;10.40;7.80;;;;;;;8.90;70.27;100043.61;106932;1257;1065605;-72
2023/03/22 18:09:57;;;;;;;13.30;9.00;;;;;;;8.85;70.31;100037.48;106881;1256;1016400;-72
2023/03/22 18:14:49;;;;;;;8.50;7.50;;;;;;;8.82;70.38;100035.88;106753;1258;1016383;-72
2023/03/22 18:19:40;;;;;;;13.50;9.00;;;;;;;8.81;70.51;100037.77;106832;1257;1077005;-72
2023/03/22 18:24:32;;;;;;;14.40;8.20;;;;;;;8.83;70.69;100035.20;106771;1258;1016793;-72
2023/03/22 18:29:27;;;;;;;11.90;8.60;;;;;;;8.86;70.69;100034.41;106603;1262;1051222;-72
2023/03/22 18:34:19;;;;;;;8.50;7.40;;;;;;;8.87;70.66;100030.77;106862;1257;1062544;-72
2023/03/22 18:39:13;;;;;;;10.60;9.20;;;;;;;8.87;70.68;100029.22;106769;1259;1018526;-72
2023/03/22 18:44:05;;;;;;;13.70;10.40;;;;;;;8.86;70.82;100031.79;106861;1257;1070927;-72
2023/03/22 18:48:57;;;;;;;11.90;9.20;;;;;;;8.83;71.00;100030.03;106887;1258;1016313;-72
2023/03/22 18:53:49;;;;;;;16.60;11.10;;;;;;;8.82;70.80;100027.23;106918;1257;1073103;-72
2023/03/22 18:58:43;;;;;;;22.40;11.40;;;;;;;8.80;70.98;100027.22;106760;1257;1016765;-72
2023/03/22 19:03:35;;;;;;;13.10;8.60;;;;;;;8.77;71.10;100026.85;106671;1263;1051492;-72
2023/03/22 19:08:27;;;;;;;12.60;8.20;;;;;;;8.77;71.14;100018.72;106856;1257;1016933;-73
2023/03/22 19:13:19;;;;;;;12.70;8.30;;;;;;;8.77;71.33;100015.61;106799;1259;1068481;-72
2023/03/22 19:18:11;;;;;;;12.10;9.50;;;;;;;8.78;71.37;100013.73;106775;1258;1016238;-72
2023/03/22 19:23:02;;;;;;;15.10;10.50;;;;;;;8.81;71.48;100012.04;106766;1262;1016393;-71
2023/03/22 19:27:54;;;;;;;14.70;12.70;;;;;;;8.85;71.48;100003.44;106729;1259;1073599;-72
2023/03/22 19:32:46;;;;;;;13.80;10.90;;;;;;;8.91;71.48;100006.63;106839;1260;1018046;-72
2023/03/22 19:37:39;;;;;;;19.50;12.40;;;;;;;8.96;71.37;99999.27;106806;1259;1050669;-72
2023/03/22 19:42:31;;;;;;;15.70;12.10;;;;;;;8.99;71.33;100002.59;106735;1259;1016295;-72
2023/03/22 19:47:22;;;;;;;16.60;11.90;;;;;;;9.01;71.52;99995.50;106799;1261;1016274;-73
2023/03/22 19:52:14;;;;;;;18.30;13.60;;;;;;;9.01;71.53;99992.58;106777;1257;1069689;-72
2023/03/22 19:57:06;;;;;;;19.40;14.80;;;;;;;9.01;71.45;99990.33;106812;1258;1016517;-72
2023/03/22 20:01:58;;;;;;;19.10;13.70;;;;;;;9.07;71.70;99990.23;106743;1256;1073283;-72
2023/03/22 20:06:50;;;;;;;20.70;15.70;;;;;;;9.11;71.50;99987.67;106670;1257;1017025;-72
2023/03/22 20:11:42;;;;;;;26.60;17.70;;;;;;;9.10;71.61;99987.86;106782;1257;1016498;-72
2023/03/22 20:16:36;;;;;;;26.90;17.90;;;;;;;9.12;71.65;99987.69;106738;1262;1058852;-72
2023/03/22 20:21:28;;;;;;;20.60;16.00;;;;;;;9.12;71.78;99984.06;106842;1258;1016485;-73
2023/03/22 20:26:20;;;;;;;21.40;15.70;;;;;;;9.09;71.60;99982.13;106887;1257;1016350;-72
2023/03/22 20:31:15;;;;;;;20.80;14.70;;;;;;;9.03;71.83;99982.04;106752;1260;1051994;-72
2023/03/22 20:36:10;;;;;;;22.70;16.00;;;;;;;8.96;71.73;99981.46;106727;1258;1058026;-72
2023/03/22 20:41:02;;;;;;;21.30;15.40;;;;;;;8.92;71.89;99983.30;106871;1258;1071818;-72
2023/03/22 20:45:53;;;;;;;25.70;18.00;;;;;;;8.87;72.01;99979.79;106744;1261;1016306;-72
2023/03/22 20:50:48;;;;;;;26.40;18.30;;;;;;;8.83;72.09;99977.14;106836;1257;1051353;-72
2023/03/22 20:55:41;;;;;;;25.90;17.90;;;;;;;8.84;72.20;99973.02;106794;1257;1058369;-72
2023/03/22 21:00:33;;;;;;;26.50;20.10;;;;;;;8.90;72.44;99964.44;106830;1259;1016427;-72
2023/03/22 21:05:24;;;;;;;23.30;17.80;;;;;;;8.89;72.17;99960.98;106757;1261;1016402;-72
2023/03/22 21:10:18;;;;;;;23.40;18.00;;;;;;;8.86;72.41;99955.58;106738;1259;1050734;-71
2023/03/22 21:15:12;;;;;;;29.90;21.90;;;;;;;8.83;72.61;99957.45;106996;1259;1015924;-72
2023/03/22 21:20:05;;;;;;;24.20;19.20;;;;;;;8.79;72.65;99952.39;106784;1258;1016294;-72
2023/03/22 21:24:57;;;;;;;24.50;19.40;;;;;;;8.72;72.54;99956.45;106765;1263;1016786;-72
2023/03/22 21:29:50;;;;;;;25.30;17.60;;;;;;;8.66;72.83;99954.31;107012;1258;1016064;-72
2023/03/22 21:34:42;;;;;;;29.20;20.20;;;;;;;8.61;72.85;99954.93;106722;1259;1016429;-71
2023/03/22 21:39:35;;;;;;;24.20;18.10;;;;;;;8.57;72.84;99954.89;107322;1258;1016525;-72
2023/03/22 21:44:26;;;;;;;28.70;20.30;;;;;;;8.51;73.03;99957.91;106711;1257;1066256;-72
2023/03/22 21:49:25;;;;;;;28.50;19.30;;;;;;;8.46;73.06;99956.81;106867;1259;1016207;-72
2023/03/22 21:54:17;;;;;;;23.80;18.10;;;;;;;8.36;73.14;99950.09;106770;1262;1058407;-72
2023/03/22 21:59:09;;;;;;;23.50;18.00;;;;;;;8.27;73.41;99947.54;106829;1257;1016390;-72
2023/03/22 22:04:02;;;;;;;22.80;17.90;;;;;;;8.20;73.36;99946.92;106729;1259;1070735;-72